createdAt,value
2023-01-01T00:01:00.437Z,344
2023-01-01T00:06:02.097Z,344
2023-01-01T00:11:03.815Z,326.6087
2023-01-01T00:16:05.443Z,319.60976
2023-01-01T00:21:06.974Z,294
2023-01-01T00:26:08.464Z,302.13953
2023-01-01T00:31:09.903Z,219
2023-01-01T00:36:11.574Z,294
2023-01-01T00:41:13.281Z,284.33149
2023-01-01T00:46:14.917Z,266.51309
2023-01-01T00:51:16.463Z,268.21053
2023-01-01T00:56:18.482Z,234.56604
2023-01-01T01:01:20.341Z,263.17098
2023-01-01T01:06:22.257Z,256.69036
2023-01-01T01:11:24.087Z,250.46766
2023-01-01T01:16:25.890Z,273.41176
2023-01-01T01:21:27.795Z,275.1828
2023-01-01T01:26:29.557Z,263.17098
2023-01-01T01:31:31.335Z,278.78261
2023-01-01T01:36:33.389Z,315.08434
2023-01-01T01:41:35.158Z,317.33333
2023-01-01T01:46:36.979Z,290.06742
2023-01-01T01:51:38.784Z,298.02299
2023-01-01T01:56:40.376Z,288.13408
2023-01-01T02:01:42.337Z,258.28571
2023-01-01T02:06:44.213Z,241.58454
2023-01-01T02:11:45.693Z,238.73684
2023-01-01T02:16:47.193Z,235.94313
2023-01-01T02:21:48.851Z,222.73303
2023-01-01T02:26:50.422Z,243.02913
2023-01-01T02:31:51.874Z,227.87097
2023-01-01T02:36:53.552Z,226.56881
2023-01-01T02:41:55.377Z,227.87097
2023-01-01T02:46:57.185Z,216.56637
2023-01-01T02:51:58.958Z,199.60166
2023-01-01T02:57:00.611Z,198.54545
2023-01-01T03:02:02.196Z,188.44444
2023-01-01T03:07:04.206Z,209.51724
2023-01-01T03:12:05.980Z,207.24786
2023-01-01T03:17:07.711Z,202.82353
2023-01-01T03:22:09.483Z,209.51724
2023-01-01T03:27:11.245Z,205.01695
2023-01-01T03:32:13.025Z,205.01695
2023-01-01T03:37:15.106Z,196.45902
2023-01-01T03:42:16.986Z,189.41833
2023-01-01T03:47:18.745Z,186.51969
2023-01-01T03:52:20.564Z,175.57895
2023-01-01T03:57:22.501Z,172.99628
2023-01-01T04:02:24.384Z,167.18841
2023-01-01T04:07:26.347Z,165.58273
2023-01-01T04:12:28.289Z,160.90141
2023-01-01T04:17:30.018Z,162.43972
2023-01-01T04:22:31.819Z,158.63415
2023-01-01T04:27:33.611Z,155.68385
2023-01-01T04:32:35.350Z,142.07074
2023-01-01T04:37:37.320Z,145.30719
2023-01-01T04:42:39.154Z,148.65116
2023-01-01T04:47:40.934Z,152.81356
2023-01-01T04:52:42.782Z,147.97351
2023-01-01T04:57:44.765Z,150.02007
2023-01-01T05:02:46.306Z,146.63158
2023-01-01T05:07:47.976Z,143.35275
2023-01-01T05:12:49.554Z,147.97351
2023-01-01T05:17:51.051Z,154.9589
2023-01-01T05:22:52.493Z,154.9589
2023-01-01T05:27:54.076Z,162.43972
2023-01-01T05:32:55.589Z,173.85075
2023-01-01T05:37:57.247Z,166.38267
2023-01-01T05:42:58.710Z,175.57895
2023-01-01T05:48:00.519Z,178.22053
2023-01-01T05:53:02.210Z,178.22053
2023-01-01T05:58:04.300Z,195.42857
2023-01-01T06:03:05.827Z,198.54545
2023-01-01T06:08:07.501Z,209.51724
2023-01-01T06:13:13.207Z,211.82609
2023-01-01T06:18:15.553Z,203.91561
2023-01-01T06:23:17.274Z,207.24786
2023-01-01T06:28:18.929Z,200.66667
2023-01-01T06:33:20.693Z,197.49794
2023-01-01T06:38:22.729Z,208.37768
2023-01-01T06:43:24.525Z,211.82609
2023-01-01T06:48:26.302Z,225.27854
2023-01-01T06:53:28.029Z,214.17544
2023-01-01T06:58:30.052Z,199.60166
2023-01-01T07:03:31.920Z,189.41833
2023-01-01T07:08:33.925Z,182.75969
2023-01-01T07:13:35.695Z,186.51969
2023-01-01T07:18:37.484Z,209.51724
2023-01-01T07:23:39.234Z,201.74059
2023-01-01T07:28:41.058Z,203.91561
2023-01-01T07:33:42.851Z,214.17544
2023-01-01T07:38:44.784Z,217.77778
2023-01-01T07:43:46.567Z,207.24786
2023-01-01T07:48:48.065Z,188.44444
2023-01-01T07:53:49.616Z,188.44444
2023-01-01T07:58:51.347Z,203.91561
2023-01-01T08:03:52.869Z,192.3871
2023-01-01T08:08:54.617Z,192.3871
2023-01-01T08:13:56.091Z,208.37768
2023-01-01T08:18:57.900Z,209.51724
2023-01-01T08:23:59.400Z,209.51724
2023-01-01T08:29:01.030Z,214.17544
2023-01-01T08:34:02.707Z,181.83784
2023-01-01T08:39:04.359Z,189.41833
2023-01-01T08:44:05.959Z,221.47748
2023-01-01T08:49:07.607Z,208.37768
2023-01-01T08:54:09.053Z,214.17544
2023-01-01T08:59:10.754Z,255.11111
2023-01-01T09:04:15.784Z,263.17098
2023-01-01T09:09:19.746Z,256.69036
2023-01-01T09:14:21.743Z,290.06742
2023-01-01T09:19:23.520Z,331.42138
2023-01-01T09:24:25.080Z,280.61202
2023-01-01T09:29:26.610Z,321.91411
2023-01-01T09:34:28.096Z,286.22222
2023-01-01T09:39:29.753Z,317.33333
2023-01-01T09:44:31.470Z,374.76923
2023-01-01T09:49:32.974Z,363.04762
2023-01-01T09:54:34.440Z,357.42282
2023-01-01T09:59:36.181Z,414.22901
2023-01-01T10:04:37.630Z,461.64706
2023-01-01T10:09:39.733Z,509.13761
2023-01-01T10:14:41.263Z,776.43243
2023-01-01T10:19:42.829Z,799.55556
2023-01-01T10:24:44.595Z,988.0678
2023-01-01T10:29:46.211Z,1176
2023-01-01T10:34:47.724Z,1024.70175
2023-01-01T10:39:49.502Z,714
2023-01-01T10:44:50.952Z,1128.61538
2023-01-01T10:49:52.762Z,1810.66667
2023-01-01T10:54:54.347Z,1931.09677
2023-01-01T10:59:56.421Z,1869
2023-01-01T11:04:57.990Z,1608.86486
2023-01-01T11:10:03.744Z,2622.26087
2023-01-01T11:15:06.357Z,2313.23077
2023-01-01T11:20:08.164Z,2068.13793
2023-01-01T11:25:09.927Z,3024
2023-01-01T11:30:11.684Z,1565.05263
2023-01-01T11:35:13.111Z,877.33333
2023-01-01T11:40:15.055Z,1128.61538
2023-01-01T11:45:16.973Z,849.88235
2023-01-01T11:50:18.815Z,787.83562
2023-01-01T11:55:20.651Z,677.33333
2023-01-01T12:00:22.976Z,776.43243
2023-01-01T12:05:24.774Z,592.42105
2023-01-01T12:10:26.746Z,677.33333
2023-01-01T12:15:28.451Z,525.13208
2023-01-01T12:20:30.070Z,470.49573
2023-01-01T12:25:31.854Z,448.91803
2023-01-01T12:30:33.485Z,363.04762
2023-01-01T12:35:35.157Z,432.88889
2023-01-01T12:40:36.989Z,494
2023-01-01T12:45:38.699Z,509.13761
2023-01-01T12:50:40.178Z,365.91781
2023-01-01T12:55:42.208Z,351.94702
2023-01-01T13:00:44.236Z,231.85047
2023-01-01T13:05:45.985Z,203.91561
2023-01-01T13:10:47.647Z,188.44444
2023-01-01T13:15:49.180Z,225.27854
2023-01-01T13:20:50.673Z,248.9505
2023-01-01T13:25:52.493Z,354.66667
2023-01-01T13:30:54.173Z,368.82759
2023-01-01T13:35:55.771Z,432.88889
2023-01-01T13:40:57.494Z,504
2023-01-01T13:46:11.928Z,432.88889
2023-01-01T13:51:33.623Z,494
2023-01-01T13:56:56.799Z,553.90099
2023-01-01T14:01:59.077Z,444.81301
2023-01-01T14:07:13.342Z,652.04598
2023-01-01T14:12:27.024Z,542.05825
2023-01-01T14:17:28.955Z,494
2023-01-01T14:22:30.735Z,475.03448
2023-01-01T14:27:32.468Z,536.30769
2023-01-01T14:32:34.325Z,620.92308
2023-01-01T14:37:36.108Z,566.22222
2023-01-01T14:42:38.076Z,585.66667
2023-01-01T14:47:39.913Z,668.70588
2023-01-01T14:52:41.697Z,494
2023-01-01T14:57:43.456Z,475.03448
2023-01-01T15:02:45.736Z,396.94118
2023-01-01T15:07:47.407Z,509.13761
2023-01-01T15:12:49.054Z,475.03448
2023-01-01T15:17:50.790Z,421.51938
2023-01-01T15:22:52.302Z,425.25
2023-01-01T15:27:53.818Z,686.16867
2023-01-01T15:32:55.593Z,585.66667
2023-01-01T15:37:57.164Z,425.25
2023-01-01T15:42:59.031Z,357.42282
2023-01-01T15:48:00.706Z,400.2963
2023-01-01T15:53:02.284Z,440.77419
2023-01-01T15:58:03.804Z,425.25
2023-01-01T16:03:06.144Z,396.94118
2023-01-01T16:08:07.782Z,365.91781
2023-01-01T16:13:09.432Z,360.21622
2023-01-01T16:18:11.256Z,360.21622
2023-01-01T16:23:12.756Z,351.94702
2023-01-01T16:28:14.134Z,341.41935
2023-01-01T16:33:15.924Z,338.87179
2023-01-01T16:38:17.362Z,354.66667
2023-01-01T16:43:19.198Z,365.91781
2023-01-01T16:48:20.802Z,365.91781
2023-01-01T16:53:22.224Z,331.42138
2023-01-01T16:58:47.835Z,308.49704
2023-01-01T17:03:50.239Z,248.9505
2023-01-01T17:08:51.801Z,209.51724
2023-01-01T17:13:53.716Z,235.94313
2023-01-01T17:19:16.010Z,231.85047
2023-01-01T17:24:19.032Z,259.89744
2023-01-01T17:29:20.593Z,284.33149
2023-01-01T17:34:22.294Z,261.52577
2023-01-01T17:39:23.748Z,253.54774
2023-01-01T17:44:25.465Z,261.52577
2023-01-01T17:49:26.985Z,252
2023-01-01T17:54:28.468Z,244.4878
2023-01-01T17:59:30.076Z,263.17098
2023-01-01T18:04:31.777Z,248.9505
2023-01-01T18:09:33.464Z,234.56604
2023-01-01T18:14:35.237Z,211.82609
2023-01-01T18:19:37.045Z,233.20188
2023-01-01T18:24:38.821Z,220.23318
2023-01-01T18:29:40.623Z,240.15385
2023-01-01T18:34:42.435Z,211.82609
2023-01-01T18:39:44.279Z,205.01695
2023-01-01T18:44:46.317Z,191.38956
2023-01-01T18:49:47.964Z,200.66667
2023-01-01T18:54:49.407Z,214.17544
2023-01-01T18:59:50.924Z,188.44444
2023-01-01T19:04:52.709Z,180.01533
2023-01-01T19:09:58.935Z,237.33333
2023-01-01T19:15:00.941Z,245.96078
2023-01-01T19:20:02.800Z,222.73303
2023-01-01T19:25:04.241Z,222.73303
2023-01-01T19:30:05.710Z,217.77778
2023-01-01T19:35:10.698Z,201.74059
2023-01-01T19:40:14.836Z,197.49794
2023-01-01T19:45:16.536Z,198.54545
2023-01-01T19:50:17.985Z,196.45902
2023-01-01T19:55:19.485Z,191.38956
2023-01-01T20:00:21.017Z,172.99628
2023-01-01T20:05:23.275Z,188.44444
2023-01-01T20:10:24.803Z,196.45902
2023-01-01T20:15:26.613Z,187.47826
2023-01-01T20:20:28.174Z,189.41833
2023-01-01T20:25:29.652Z,175.57895
2023-01-01T20:30:31.320Z,190.4
2023-01-01T20:35:32.818Z,173.85075
2023-01-01T20:40:34.451Z,174.71161
2023-01-01T20:45:36.599Z,173.85075
2023-01-01T20:50:38.180Z,178.22053
2023-01-01T20:55:39.784Z,182.75969
2023-01-01T21:00:41.315Z,177.33333
2023-01-01T21:05:43.070Z,186.51969
2023-01-01T21:10:44.623Z,184.625
2023-01-01T21:15:46.267Z,175.57895
2023-01-01T21:20:48.098Z,181.83784
2023-01-01T21:25:51.523Z,183.68872
2023-01-01T21:30:53.759Z,173.85075
2023-01-01T21:35:55.425Z,175.57895
2023-01-01T21:40:57.060Z,169.64103
2023-01-01T21:45:58.674Z,157.14879
2023-01-01T21:51:00.528Z,154.9589
2023-01-01T21:56:02.079Z,152.10811
2023-01-01T22:01:03.654Z,149.33333
2023-01-01T22:06:05.537Z,147.97351
2023-01-01T22:11:07.044Z,144
2023-01-01T22:16:08.691Z,141.4359
2023-01-01T22:21:10.395Z,139.55556
2023-01-01T22:26:11.899Z,130.10272
2023-01-01T22:31:13.495Z,135.30435
2023-01-01T22:36:15.113Z,125.71091
2023-01-01T22:41:16.707Z,132.3792
2023-01-01T22:46:18.429Z,152.81356
2023-01-01T22:51:19.996Z,168
2023-01-01T22:56:21.491Z,170.47059
2023-01-01T23:01:23.014Z,176.45283
2023-01-01T23:06:25.150Z,172.99628
2023-01-01T23:11:26.655Z,172.99628
2023-01-01T23:16:28.336Z,171.30627
2023-01-01T23:21:29.940Z,176.45283
2023-01-01T23:26:31.561Z,180.92308
2023-01-01T23:31:33.122Z,193.39271
2023-01-01T23:36:34.730Z,198.54545
2023-01-01T23:41:36.192Z,195.42857
2023-01-01T23:46:38.061Z,185.56863
2023-01-01T23:51:39.600Z,186.51969
2023-01-01T23:56:41.043Z,185.56863
